sensor_id;sensor_type;location;lat;lon;timestamp;temperature;humidity
9998;DHT22;5038;53.064;8.624;2022-12-29T00:01:08;9.60;99.90
9998;DHT22;5038;53.064;8.624;2022-12-29T00:03:47;9.60;99.90
9998;DHT22;5038;53.064;8.624;2022-12-29T00:06:27;9.60;99.90
9998;DHT22;5038;53.064;8.624;2022-12-29T00:08:56;9.60;99.90
9998;DHT22;5038;53.064;8.624;2022-12-29T00:11:26;9.70;99.90
9998;DHT22;5038;53.064;8.624;2022-12-29T00:13:55;9.70;99.90
9998;DHT22;5038;53.064;8.624;2022-12-29T00:16:42;9.70;99.90
9998;DHT22;5038;53.064;8.624;2022-12-29T00:19:12;9.60;99.90
9998;DHT22;5038;53.064;8.624;2022-12-29T00:21:55;9.70;99.90
9998;DHT22;5038;53.064;8.624;2022-12-29T00:24:40;9.70;99.90
9998;DHT22;5038;53.064;8.624;2022-12-29T00:27:27;9.70;99.90
9998;DHT22;5038;53.064;8.624;2022-12-29T00:30:15;9.70;99.90
9998;DHT22;5038;53.064;8.624;2022-12-29T00:33:09;9.70;99.90
9998;DHT22;5038;53.064;8.624;2022-12-29T00:35:54;9.70;99.90
9998;DHT22;5038;53.064;8.624;2022-12-29T00:38:24;9.70;99.90
9998;DHT22;5038;53.064;8.624;2022-12-29T00:41:09;9.80;99.90
9998;DHT22;5038;53.064;8.624;2022-12-29T00:43:57;9.80;99.90
9998;DHT22;5038;53.064;8.624;2022-12-29T00:46:41;11.20;99.90
9998;DHT22;5038;53.064;8.624;2022-12-29T00:49:12;9.80;99.90
9998;DHT22;5038;53.064;8.624;2022-12-29T00:52:03;9.80;99.90
9998;DHT22;5038;53.064;8.624;2022-12-29T00:54:35;9.80;99.90
9998;DHT22;5038;53.064;8.624;2022-12-29T00:57:04;9.80;99.90
9998;DHT22;5038;53.064;8.624;2022-12-29T00:59:34;9.80;99.90
9998;DHT22;5038;53.064;8.624;2022-12-29T01:02:03;9.80;99.90
9998;DHT22;5038;53.064;8.624;2022-12-29T01:04:31;9.80;99.90
9998;DHT22;5038;53.064;8.624;2022-12-29T01:07:01;9.90;99.90
9998;DHT22;5038;53.064;8.624;2022-12-29T01:09:31;9.90;99.90
9998;DHT22;5038;53.064;8.624;2022-12-29T01:12:17;9.90;99.90
9998;DHT22;5038;53.064;8.624;2022-12-29T01:15:06;9.90;99.90
9998;DHT22;5038;53.064;8.624;2022-12-29T01:17:35;9.90;99.90
9998;DHT22;5038;53.064;8.624;2022-12-29T01:20:04;9.90;99.90
9998;DHT22;5038;53.064;8.624;2022-12-29T01:22:36;9.90;99.90
9998;DHT22;5038;53.064;8.624;2022-12-29T01:25:05;10.00;99.90
9998;DHT22;5038;53.064;8.624;2022-12-29T01:27:34;10.00;99.90
9998;DHT22;5038;53.064;8.624;2022-12-29T01:30:03;10.00;99.90
9998;DHT22;5038;53.064;8.624;2022-12-29T01:32:31;10.00;99.90
9998;DHT22;5038;53.064;8.624;2022-12-29T01:34:59;10.00;99.90
9998;DHT22;5038;53.064;8.624;2022-12-29T01:37:28;10.10;99.90
9998;DHT22;5038;53.064;8.624;2022-12-29T01:39:57;10.10;99.90
9998;DHT22;5038;53.064;8.624;2022-12-29T01:42:25;10.10;99.90
9998;DHT22;5038;53.064;8.624;2022-12-29T01:44:55;10.10;99.90
9998;DHT22;5038;53.064;8.624;2022-12-29T01:47:31;10.10;99.90
9998;DHT22;5038;53.064;8.624;2022-12-29T01:50:04;10.10;99.90
9998;DHT22;5038;53.064;8.624;2022-12-29T01:52:35;10.20;99.90
9998;DHT22;5038;53.064;8.624;2022-12-29T01:55:07;10.10;99.90
9998;DHT22;5038;53.064;8.624;2022-12-29T01:57:39;10.20;99.90
9998;DHT22;5038;53.064;8.624;2022-12-29T02:00:10;10.20;99.90
9998;DHT22;5038;53.064;8.624;2022-12-29T02:02:42;10.20;99.90
9998;DHT22;5038;53.064;8.624;2022-12-29T02:05:18;10.20;99.90
9998;DHT22;5038;53.064;8.624;2022-12-29T02:07:48;10.20;99.90
9998;DHT22;5038;53.064;8.624;2022-12-29T02:10:20;10.20;99.90
9998;DHT22;5038;53.064;8.624;2022-12-29T02:12:49;10.30;99.90
9998;DHT22;5038;53.064;8.624;2022-12-29T02:15:23;10.30;99.90
9998;DHT22;5038;53.064;8.624;2022-12-29T02:18:07;10.30;99.90
9998;DHT22;5038;53.064;8.624;2022-12-29T02:21:13;10.30;99.90
9998;DHT22;5038;53.064;8.624;2022-12-29T02:24:06;10.30;99.90
9998;DHT22;5038;53.064;8.624;2022-12-29T02:27:06;10.30;99.90
9998;DHT22;5038;53.064;8.624;2022-12-29T02:29:50;10.40;99.90
9998;DHT22;5038;53.064;8.624;2022-12-29T02:32:30;10.40;99.90
9998;DHT22;5038;53.064;8.624;2022-12-29T02:35:08;10.40;99.90
9998;DHT22;5038;53.064;8.624;2022-12-29T02:37:44;10.40;99.90
9998;DHT22;5038;53.064;8.624;2022-12-29T02:40:22;10.40;99.90
9998;DHT22;5038;53.064;8.624;2022-12-29T02:42:55;10.40;99.90
9998;DHT22;5038;53.064;8.624;2022-12-29T02:45:31;10.40;99.90
9998;DHT22;5038;53.064;8.624;2022-12-29T02:48:09;10.40;99.90
9998;DHT22;5038;53.064;8.624;2022-12-29T02:50:41;10.50;99.90
9998;DHT22;5038;53.064;8.624;2022-12-29T02:53:16;10.50;99.90
9998;DHT22;5038;53.064;8.624;2022-12-29T02:56:05;10.50;99.90
9998;DHT22;5038;53.064;8.624;2022-12-29T02:58:33;10.50;99.90
9998;DHT22;5038;53.064;8.624;2022-12-29T03:01:16;10.50;99.90
9998;DHT22;5038;53.064;8.624;2022-12-29T03:04:03;10.50;99.90
9998;DHT22;5038;53.064;8.624;2022-12-29T03:06:43;10.50;99.90
9998;DHT22;5038;53.064;8.624;2022-12-29T03:09:28;10.50;99.90
9998;DHT22;5038;53.064;8.624;2022-12-29T03:12:03;10.50;99.90
9998;DHT22;5038;53.064;8.624;2022-12-29T03:14:47;10.60;99.90
9998;DHT22;5038;53.064;8.624;2022-12-29T03:17:43;10.60;99.90
9998;DHT22;5038;53.064;8.624;2022-12-29T03:20:19;10.60;99.90
9998;DHT22;5038;53.064;8.624;2022-12-29T03:22:56;10.60;99.90
9998;DHT22;5038;53.064;8.624;2022-12-29T03:25:31;10.60;99.90
9998;DHT22;5038;53.064;8.624;2022-12-29T03:28:06;10.60;99.90
9998;DHT22;5038;53.064;8.624;2022-12-29T03:30:41;10.60;99.90
9998;DHT22;5038;53.064;8.624;2022-12-29T03:33:14;10.60;99.90
9998;DHT22;5038;53.064;8.624;2022-12-29T03:35:46;10.60;99.90
9998;DHT22;5038;53.064;8.624;2022-12-29T03:38:18;10.60;99.90
9998;DHT22;5038;53.064;8.624;2022-12-29T03:40:50;10.60;99.90
9998;DHT22;5038;53.064;8.624;2022-12-29T03:43:19;10.60;99.90
9998;DHT22;5038;53.064;8.624;2022-12-29T03:45:48;10.60;99.90
9998;DHT22;5038;53.064;8.624;2022-12-29T03:48:17;10.70;99.90
9998;DHT22;5038;53.064;8.624;2022-12-29T03:50:47;10.60;99.90
9998;DHT22;5038;53.064;8.624;2022-12-29T03:53:17;10.70;99.90
9998;DHT22;5038;53.064;8.624;2022-12-29T03:55:46;10.60;99.90
9998;DHT22;5038;53.064;8.624;2022-12-29T03:58:15;10.60;99.90
9998;DHT22;5038;53.064;8.624;2022-12-29T04:00:58;10.60;99.90
9998;DHT22;5038;53.064;8.624;2022-12-29T04:03:30;10.60;99.90
9998;DHT22;5038;53.064;8.624;2022-12-29T04:06:00;10.60;99.90
9998;DHT22;5038;53.064;8.624;2022-12-29T04:08:35;10.60;99.90
9998;DHT22;5038;53.064;8.624;2022-12-29T04:11:03;10.60;99.90
9998;DHT22;5038;53.064;8.624;2022-12-29T04:13:31;10.60;99.90
9998;DHT22;5038;53.064;8.624;2022-12-29T04:15:59;10.60;99.90
9998;DHT22;5038;53.064;8.624;2022-12-29T04:18:28;10.60;99.90
9998;DHT22;5038;53.064;8.624;2022-12-29T04:20:56;10.60;99.90
9998;DHT22;5038;53.064;8.624;2022-12-29T04:23:36;10.60;99.90
9998;DHT22;5038;53.064;8.624;2022-12-29T04:26:07;10.60;99.90
9998;DHT22;5038;53.064;8.624;2022-12-29T04:28:47;10.60;99.90
9998;DHT22;5038;53.064;8.624;2022-12-29T04:31:26;10.60;99.90
9998;DHT22;5038;53.064;8.624;2022-12-29T04:33:55;10.60;99.90
9998;DHT22;5038;53.064;8.624;2022-12-29T04:36:24;10.60;99.90
9998;DHT22;5038;53.064;8.624;2022-12-29T04:38:58;10.60;99.90
9998;DHT22;5038;53.064;8.624;2022-12-29T04:41:26;10.60;99.90
9998;DHT22;5038;53.064;8.624;2022-12-29T04:43:54;10.60;99.90
9998;DHT22;5038;53.064;8.624;2022-12-29T04:46:55;10.60;99.90
9998;DHT22;5038;53.064;8.624;2022-12-29T04:49:42;10.70;99.90
9998;DHT22;5038;53.064;8.624;2022-12-29T04:52:39;10.70;99.90
9998;DHT22;5038;53.064;8.624;2022-12-29T04:55:11;10.70;99.90
9998;DHT22;5038;53.064;8.624;2022-12-29T04:57:40;10.70;99.90
9998;DHT22;5038;53.064;8.624;2022-12-29T05:00:13;10.70;99.90
9998;DHT22;5038;53.064;8.624;2022-12-29T05:02:42;10.70;99.90
9998;DHT22;5038;53.064;8.624;2022-12-29T05:05:10;10.70;99.90
9998;DHT22;5038;53.064;8.624;2022-12-29T05:07:42;10.80;99.90
9998;DHT22;5038;53.064;8.624;2022-12-29T05:10:12;10.80;99.90
9998;DHT22;5038;53.064;8.624;2022-12-29T05:12:41;10.80;99.90
9998;DHT22;5038;53.064;8.624;2022-12-29T05:15:11;10.80;99.90
9998;DHT22;5038;53.064;8.624;2022-12-29T05:17:41;10.80;99.90
9998;DHT22;5038;53.064;8.624;2022-12-29T05:20:11;10.80;99.90
9998;DHT22;5038;53.064;8.624;2022-12-29T05:22:39;10.80;99.90
9998;DHT22;5038;53.064;8.624;2022-12-29T05:25:08;10.80;99.90
9998;DHT22;5038;53.064;8.624;2022-12-29T05:28:01;10.70;99.90
9998;DHT22;5038;53.064;8.624;2022-12-29T05:30:40;10.70;99.90
9998;DHT22;5038;53.064;8.624;2022-12-29T05:33:08;10.70;99.90
9998;DHT22;5038;53.064;8.624;2022-12-29T05:35:39;10.70;99.90
9998;DHT22;5038;53.064;8.624;2022-12-29T05:38:07;10.70;99.90
9998;DHT22;5038;53.064;8.624;2022-12-29T05:40:37;10.70;99.90
9998;DHT22;5038;53.064;8.624;2022-12-29T05:43:18;10.60;99.90
9998;DHT22;5038;53.064;8.624;2022-12-29T05:46:07;10.60;99.90
9998;DHT22;5038;53.064;8.624;2022-12-29T05:49:05;10.60;99.90
9998;DHT22;5038;53.064;8.624;2022-12-29T05:51:42;10.60;99.90
9998;DHT22;5038;53.064;8.624;2022-12-29T05:54:12;10.60;99.90
9998;DHT22;5038;53.064;8.624;2022-12-29T05:56:41;10.50;99.90
9998;DHT22;5038;53.064;8.624;2022-12-29T05:59:11;10.50;99.90
9998;DHT22;5038;53.064;8.624;2022-12-29T06:01:39;10.50;99.90
9998;DHT22;5038;53.064;8.624;2022-12-29T06:04:08;10.50;99.90
9998;DHT22;5038;53.064;8.624;2022-12-29T06:06:36;10.50;99.90
9998;DHT22;5038;53.064;8.624;2022-12-29T06:09:11;10.50;99.90
9998;DHT22;5038;53.064;8.624;2022-12-29T06:11:39;10.60;99.90
9998;DHT22;5038;53.064;8.624;2022-12-29T06:14:08;10.50;99.90
9998;DHT22;5038;53.064;8.624;2022-12-29T06:16:38;10.60;99.90
9998;DHT22;5038;53.064;8.624;2022-12-29T06:19:10;10.60;99.90
9998;DHT22;5038;53.064;8.624;2022-12-29T06:21:39;10.60;99.90
9998;DHT22;5038;53.064;8.624;2022-12-29T06:24:09;10.60;99.90
9998;DHT22;5038;53.064;8.624;2022-12-29T06:26:38;10.60;99.90
9998;DHT22;5038;53.064;8.624;2022-12-29T06:29:08;10.60;99.90
9998;DHT22;5038;53.064;8.624;2022-12-29T06:31:38;10.60;99.90
9998;DHT22;5038;53.064;8.624;2022-12-29T06:34:06;10.50;99.90
9998;DHT22;5038;53.064;8.624;2022-12-29T06:36:36;10.60;99.90
9998;DHT22;5038;53.064;8.624;2022-12-29T06:39:04;10.60;99.90
9998;DHT22;5038;53.064;8.624;2022-12-29T06:41:33;10.50;99.90
9998;DHT22;5038;53.064;8.624;2022-12-29T06:44:20;10.50;99.90
9998;DHT22;5038;53.064;8.624;2022-12-29T06:47:01;10.50;99.90
9998;DHT22;5038;53.064;8.624;2022-12-29T06:49:29;10.50;99.90
9998;DHT22;5038;53.064;8.624;2022-12-29T06:51:58;10.50;99.90
9998;DHT22;5038;53.064;8.624;2022-12-29T06:54:27;10.50;99.90
9998;DHT22;5038;53.064;8.624;2022-12-29T06:56:56;10.50;99.90
9998;DHT22;5038;53.064;8.624;2022-12-29T06:59:24;10.50;99.90
9998;DHT22;5038;53.064;8.624;2022-12-29T07:01:52;10.50;99.90
9998;DHT22;5038;53.064;8.624;2022-12-29T07:04:22;10.50;99.90
9998;DHT22;5038;53.064;8.624;2022-12-29T07:06:50;10.50;99.90
9998;DHT22;5038;53.064;8.624;2022-12-29T07:09:19;10.50;99.90
9998;DHT22;5038;53.064;8.624;2022-12-29T07:11:47;10.40;99.90
9998;DHT22;5038;53.064;8.624;2022-12-29T07:14:15;10.40;99.90
9998;DHT22;5038;53.064;8.624;2022-12-29T07:16:43;10.40;99.90
9998;DHT22;5038;53.064;8.624;2022-12-29T07:19:12;10.50;99.90
9998;DHT22;5038;53.064;8.624;2022-12-29T07:21:41;10.40;99.90
9998;DHT22;5038;53.064;8.624;2022-12-29T07:24:12;10.40;99.90
9998;DHT22;5038;53.064;8.624;2022-12-29T07:26:40;10.40;99.90
9998;DHT22;5038;53.064;8.624;2022-12-29T07:29:09;10.30;99.90
9998;DHT22;5038;53.064;8.624;2022-12-29T07:31:37;10.30;99.90
9998;DHT22;5038;53.064;8.624;2022-12-29T07:34:05;10.30;99.90
9998;DHT22;5038;53.064;8.624;2022-12-29T07:36:33;10.30;99.90
9998;DHT22;5038;53.064;8.624;2022-12-29T07:39:04;10.30;99.90
9998;DHT22;5038;53.064;8.624;2022-12-29T07:41:35;10.20;99.90
9998;DHT22;5038;53.064;8.624;2022-12-29T07:44:03;10.20;99.90
9998;DHT22;5038;53.064;8.624;2022-12-29T07:46:54;10.20;99.90
9998;DHT22;5038;53.064;8.624;2022-12-29T07:49:25;10.20;99.90
9998;DHT22;5038;53.064;8.624;2022-12-29T07:51:53;10.20;99.90
9998;DHT22;5038;53.064;8.624;2022-12-29T07:54:23;10.20;99.90
9998;DHT22;5038;53.064;8.624;2022-12-29T07:56:51;10.30;99.90
9998;DHT22;5038;53.064;8.624;2022-12-29T07:59:19;10.20;99.90
9998;DHT22;5038;53.064;8.624;2022-12-29T08:01:47;10.20;99.90
9998;DHT22;5038;53.064;8.624;2022-12-29T08:04:16;10.20;99.90
9998;DHT22;5038;53.064;8.624;2022-12-29T08:06:44;10.10;99.90
9998;DHT22;5038;53.064;8.624;2022-12-29T08:09:13;10.20;99.90
9998;DHT22;5038;53.064;8.624;2022-12-29T08:11:50;10.20;99.90
9998;DHT22;5038;53.064;8.624;2022-12-29T08:14:18;10.20;99.90
9998;DHT22;5038;53.064;8.624;2022-12-29T08:16:46;10.20;99.90
9998;DHT22;5038;53.064;8.624;2022-12-29T08:19:14;10.20;99.90
9998;DHT22;5038;53.064;8.624;2022-12-29T08:21:43;10.20;99.90
9998;DHT22;5038;53.064;8.624;2022-12-29T08:24:12;10.10;99.90
9998;DHT22;5038;53.064;8.624;2022-12-29T08:26:40;10.10;99.90
9998;DHT22;5038;53.064;8.624;2022-12-29T08:29:10;10.10;99.90
9998;DHT22;5038;53.064;8.624;2022-12-29T08:31:38;10.10;99.90
9998;DHT22;5038;53.064;8.624;2022-12-29T08:34:06;10.10;99.90
9998;DHT22;5038;53.064;8.624;2022-12-29T08:36:34;10.10;99.90
9998;DHT22;5038;53.064;8.624;2022-12-29T08:39:03;10.10;99.90
9998;DHT22;5038;53.064;8.624;2022-12-29T08:41:31;10.10;99.90
9998;DHT22;5038;53.064;8.624;2022-12-29T08:43:59;10.10;99.90
9998;DHT22;5038;53.064;8.624;2022-12-29T08:46:29;10.10;99.90
9998;DHT22;5038;53.064;8.624;2022-12-29T08:48:57;10.20;99.90
9998;DHT22;5038;53.064;8.624;2022-12-29T08:51:25;10.10;99.90
9998;DHT22;5038;53.064;8.624;2022-12-29T08:53:53;10.20;99.90
9998;DHT22;5038;53.064;8.624;2022-12-29T08:56:22;10.20;99.90
9998;DHT22;5038;53.064;8.624;2022-12-29T08:58:54;10.20;99.90
9998;DHT22;5038;53.064;8.624;2022-12-29T09:01:23;10.20;99.90
9998;DHT22;5038;53.064;8.624;2022-12-29T09:03:53;10.20;99.90
9998;DHT22;5038;53.064;8.624;2022-12-29T09:06:42;10.20;99.90
9998;DHT22;5038;53.064;8.624;2022-12-29T09:09:11;10.20;99.90
9998;DHT22;5038;53.064;8.624;2022-12-29T09:11:39;10.20;99.90
9998;DHT22;5038;53.064;8.624;2022-12-29T09:14:07;10.30;99.90
9998;DHT22;5038;53.064;8.624;2022-12-29T09:16:36;10.20;99.90
9998;DHT22;5038;53.064;8.624;2022-12-29T09:19:06;10.20;99.90
9998;DHT22;5038;53.064;8.624;2022-12-29T09:21:34;10.20;99.90
9998;DHT22;5038;53.064;8.624;2022-12-29T09:24:02;10.20;99.90
9998;DHT22;5038;53.064;8.624;2022-12-29T09:26:30;10.20;99.90
9998;DHT22;5038;53.064;8.624;2022-12-29T09:28:59;10.30;99.90
9998;DHT22;5038;53.064;8.624;2022-12-29T09:31:27;10.30;99.90
9998;DHT22;5038;53.064;8.624;2022-12-29T09:33:55;10.30;99.90
9998;DHT22;5038;53.064;8.624;2022-12-29T09:36:24;10.30;99.90
9998;DHT22;5038;53.064;8.624;2022-12-29T09:38:53;10.30;99.90
9998;DHT22;5038;53.064;8.624;2022-12-29T09:41:27;10.30;99.90
9998;DHT22;5038;53.064;8.624;2022-12-29T09:44:07;10.30;99.90
9998;DHT22;5038;53.064;8.624;2022-12-29T09:46:43;10.30;99.90
9998;DHT22;5038;53.064;8.624;2022-12-29T09:49:19;10.30;99.90
9998;DHT22;5038;53.064;8.624;2022-12-29T09:51:53;10.30;99.90
9998;DHT22;5038;53.064;8.624;2022-12-29T09:54:36;10.30;99.90
9998;DHT22;5038;53.064;8.624;2022-12-29T09:57:15;10.30;99.90
9998;DHT22;5038;53.064;8.624;2022-12-29T09:59:45;10.30;99.90
9998;DHT22;5038;53.064;8.624;2022-12-29T10:02:23;10.30;99.90
9998;DHT22;5038;53.064;8.624;2022-12-29T10:04:55;10.30;99.90
9998;DHT22;5038;53.064;8.624;2022-12-29T10:07:31;10.40;99.90
9998;DHT22;5038;53.064;8.624;2022-12-29T10:10:13;10.40;99.90
9998;DHT22;5038;53.064;8.624;2022-12-29T10:12:52;10.30;99.90
9998;DHT22;5038;53.064;8.624;2022-12-29T10:15:33;10.40;99.90
9998;DHT22;5038;53.064;8.624;2022-12-29T10:18:14;10.40;99.90
9998;DHT22;5038;53.064;8.624;2022-12-29T10:20:51;10.40;99.90
9998;DHT22;5038;53.064;8.624;2022-12-29T10:23:27;10.40;99.90
9998;DHT22;5038;53.064;8.624;2022-12-29T10:25:58;10.40;99.90
9998;DHT22;5038;53.064;8.624;2022-12-29T10:28:34;10.40;99.90
9998;DHT22;5038;53.064;8.624;2022-12-29T10:31:07;10.40;99.90
9998;DHT22;5038;53.064;8.624;2022-12-29T10:33:40;10.50;99.90
9998;DHT22;5038;53.064;8.624;2022-12-29T10:36:14;10.50;99.90
9998;DHT22;5038;53.064;8.624;2022-12-29T10:38:51;10.50;99.90
9998;DHT22;5038;53.064;8.624;2022-12-29T10:41:27;10.50;99.90
9998;DHT22;5038;53.064;8.624;2022-12-29T10:44:00;10.50;99.90
9998;DHT22;5038;53.064;8.624;2022-12-29T10:46:32;10.50;99.90
9998;DHT22;5038;53.064;8.624;2022-12-29T10:49:02;10.50;99.90
9998;DHT22;5038;53.064;8.624;2022-12-29T10:51:32;10.50;99.90
9998;DHT22;5038;53.064;8.624;2022-12-29T10:54:05;10.50;99.90
9998;DHT22;5038;53.064;8.624;2022-12-29T10:56:38;10.50;99.90
9998;DHT22;5038;53.064;8.624;2022-12-29T10:59:14;10.50;99.90
9998;DHT22;5038;53.064;8.624;2022-12-29T11:01:54;10.50;99.90
9998;DHT22;5038;53.064;8.624;2022-12-29T11:04:35;10.50;99.90
9998;DHT22;5038;53.064;8.624;2022-12-29T11:07:10;10.50;99.90
9998;DHT22;5038;53.064;8.624;2022-12-29T11:09:44;10.50;99.90
9998;DHT22;5038;53.064;8.624;2022-12-29T11:12:22;10.50;99.90
9998;DHT22;5038;53.064;8.624;2022-12-29T11:15:14;10.60;99.90
9998;DHT22;5038;53.064;8.624;2022-12-29T11:17:45;10.60;99.90
9998;DHT22;5038;53.064;8.624;2022-12-29T11:20:30;10.60;99.90
9998;DHT22;5038;53.064;8.624;2022-12-29T11:23:00;10.60;99.90
9998;DHT22;5038;53.064;8.624;2022-12-29T11:25:30;10.60;99.90
9998;DHT22;5038;53.064;8.624;2022-12-29T11:28:01;10.60;99.90
9998;DHT22;5038;53.064;8.624;2022-12-29T11:30:31;10.70;99.90
9998;DHT22;5038;53.064;8.624;2022-12-29T11:33:03;10.70;99.90
9998;DHT22;5038;53.064;8.624;2022-12-29T11:35:35;10.70;99.90
9998;DHT22;5038;53.064;8.624;2022-12-29T11:38:18;10.70;99.90
9998;DHT22;5038;53.064;8.624;2022-12-29T11:40:49;10.70;99.90
9998;DHT22;5038;53.064;8.624;2022-12-29T11:43:21;10.70;99.90
9998;DHT22;5038;53.064;8.624;2022-12-29T11:45:52;10.80;99.90
9998;DHT22;5038;53.064;8.624;2022-12-29T11:48:24;10.80;99.90
9998;DHT22;5038;53.064;8.624;2022-12-29T11:50:55;10.80;99.90
9998;DHT22;5038;53.064;8.624;2022-12-29T11:53:27;10.80;99.90
9998;DHT22;5038;53.064;8.624;2022-12-29T11:55:58;10.90;99.90
9998;DHT22;5038;53.064;8.624;2022-12-29T11:58:31;10.90;99.90
9998;DHT22;5038;53.064;8.624;2022-12-29T12:01:02;10.90;99.90
9998;DHT22;5038;53.064;8.624;2022-12-29T12:03:35;10.90;99.90
9998;DHT22;5038;53.064;8.624;2022-12-29T12:06:07;10.90;99.90
9998;DHT22;5038;53.064;8.624;2022-12-29T12:08:45;11.00;99.90
9998;DHT22;5038;53.064;8.624;2022-12-29T12:11:18;11.00;99.90
9998;DHT22;5038;53.064;8.624;2022-12-29T12:13:56;11.00;99.90
9998;DHT22;5038;53.064;8.624;2022-12-29T12:16:33;11.00;99.90
9998;DHT22;5038;53.064;8.624;2022-12-29T12:19:12;11.00;99.90
9998;DHT22;5038;53.064;8.624;2022-12-29T12:21:43;11.00;99.90
9998;DHT22;5038;53.064;8.624;2022-12-29T12:24:36;11.00;99.90
9998;DHT22;5038;53.064;8.624;2022-12-29T12:27:12;11.00;99.90
9998;DHT22;5038;53.064;8.624;2022-12-29T12:29:46;11.00;99.90
9998;DHT22;5038;53.064;8.624;2022-12-29T12:32:22;11.00;99.90
9998;DHT22;5038;53.064;8.624;2022-12-29T12:34:52;11.00;99.90
9998;DHT22;5038;53.064;8.624;2022-12-29T12:37:36;11.00;99.90
9998;DHT22;5038;53.064;8.624;2022-12-29T12:40:30;11.00;99.90
9998;DHT22;5038;53.064;8.624;2022-12-29T12:43:18;11.00;99.90
9998;DHT22;5038;53.064;8.624;2022-12-29T12:45:59;11.00;99.90
9998;DHT22;5038;53.064;8.624;2022-12-29T12:51:35;10.90;99.90
9998;DHT22;5038;53.064;8.624;2022-12-29T12:54:22;10.90;99.90
9998;DHT22;5038;53.064;8.624;2022-12-29T12:57:02;10.90;99.90
9998;DHT22;5038;53.064;8.624;2022-12-29T12:59:41;10.80;99.90
9998;DHT22;5038;53.064;8.624;2022-12-29T13:02:34;10.80;99.90
9998;DHT22;5038;53.064;8.624;2022-12-29T13:05:18;10.80;99.90
9998;DHT22;5038;53.064;8.624;2022-12-29T13:08:02;10.80;99.90
9998;DHT22;5038;53.064;8.624;2022-12-29T13:10:41;10.70;99.90
9998;DHT22;5038;53.064;8.624;2022-12-29T13:13:50;10.70;99.90
9998;DHT22;5038;53.064;8.624;2022-12-29T13:16:28;10.70;99.90
9998;DHT22;5038;53.064;8.624;2022-12-29T13:19:04;10.70;99.90
9998;DHT22;5038;53.064;8.624;2022-12-29T13:21:48;10.70;99.90
9998;DHT22;5038;53.064;8.624;2022-12-29T13:24:35;10.70;99.90
9998;DHT22;5038;53.064;8.624;2022-12-29T13:27:16;10.70;99.90
9998;DHT22;5038;53.064;8.624;2022-12-29T13:29:56;10.80;99.90
9998;DHT22;5038;53.064;8.624;2022-12-29T13:32:37;10.80;99.90
9998;DHT22;5038;53.064;8.624;2022-12-29T13:35:35;10.80;99.90
9998;DHT22;5038;53.064;8.624;2022-12-29T13:38:12;10.90;99.90
9998;DHT22;5038;53.064;8.624;2022-12-29T13:40:46;10.80;99.90
9998;DHT22;5038;53.064;8.624;2022-12-29T13:43:17;10.80;99.90
9998;DHT22;5038;53.064;8.624;2022-12-29T13:45:53;10.80;99.90
9998;DHT22;5038;53.064;8.624;2022-12-29T13:48:30;10.80;99.90
9998;DHT22;5038;53.064;8.624;2022-12-29T13:51:02;10.80;99.90
9998;DHT22;5038;53.064;8.624;2022-12-29T13:53:37;10.80;99.90
9998;DHT22;5038;53.064;8.624;2022-12-29T13:56:14;10.80;99.90
9998;DHT22;5038;53.064;8.624;2022-12-29T13:58:50;10.80;99.90
9998;DHT22;5038;53.064;8.624;2022-12-29T14:01:23;10.70;99.90
9998;DHT22;5038;53.064;8.624;2022-12-29T14:03:58;10.70;99.90
9998;DHT22;5038;53.064;8.624;2022-12-29T14:06:28;10.70;99.90
9998;DHT22;5038;53.064;8.624;2022-12-29T14:08:58;10.70;99.90
9998;DHT22;5038;53.064;8.624;2022-12-29T14:11:31;10.70;99.90
9998;DHT22;5038;53.064;8.624;2022-12-29T14:14:12;10.60;99.90
9998;DHT22;5038;53.064;8.624;2022-12-29T14:16:40;10.60;99.90
9998;DHT22;5038;53.064;8.624;2022-12-29T14:19:14;10.60;99.90
9998;DHT22;5038;53.064;8.624;2022-12-29T14:21:51;10.60;99.90
9998;DHT22;5038;53.064;8.624;2022-12-29T14:24:40;10.60;99.90
9998;DHT22;5038;53.064;8.624;2022-12-29T14:27:43;10.50;99.90
9998;DHT22;5038;53.064;8.624;2022-12-29T14:30:45;10.50;99.90
9998;DHT22;5038;53.064;8.624;2022-12-29T14:33:15;10.40;99.90
9998;DHT22;5038;53.064;8.624;2022-12-29T14:35:46;10.40;99.90
9998;DHT22;5038;53.064;8.624;2022-12-29T14:38:27;10.40;99.90
9998;DHT22;5038;53.064;8.624;2022-12-29T14:41:24;10.30;99.90
9998;DHT22;5038;53.064;8.624;2022-12-29T14:46:48;10.30;99.90
9998;DHT22;5038;53.064;8.624;2022-12-29T14:49:19;10.20;99.90
9998;DHT22;5038;53.064;8.624;2022-12-29T14:51:51;10.20;99.90
9998;DHT22;5038;53.064;8.624;2022-12-29T14:54:46;10.20;99.90
9998;DHT22;5038;53.064;8.624;2022-12-29T14:57:33;10.10;99.90
9998;DHT22;5038;53.064;8.624;2022-12-29T15:00:13;10.10;99.90
9998;DHT22;5038;53.064;8.624;2022-12-29T15:02:46;10.10;99.90
9998;DHT22;5038;53.064;8.624;2022-12-29T15:05:28;10.00;99.90
9998;DHT22;5038;53.064;8.624;2022-12-29T15:07:59;10.00;99.90
9998;DHT22;5038;53.064;8.624;2022-12-29T15:10:37;10.00;99.90
9998;DHT22;5038;53.064;8.624;2022-12-29T15:13:15;10.00;99.90
9998;DHT22;5038;53.064;8.624;2022-12-29T15:15:43;10.00;99.90
9998;DHT22;5038;53.064;8.624;2022-12-29T15:18:23;9.90;99.90
9998;DHT22;5038;53.064;8.624;2022-12-29T15:20:54;9.90;99.90
9998;DHT22;5038;53.064;8.624;2022-12-29T15:23:24;9.90;99.90
9998;DHT22;5038;53.064;8.624;2022-12-29T15:25:55;9.90;99.90
9998;DHT22;5038;53.064;8.624;2022-12-29T15:28:24;9.90;99.90
9998;DHT22;5038;53.064;8.624;2022-12-29T15:30:54;9.90;99.90
9998;DHT22;5038;53.064;8.624;2022-12-29T15:33:26;9.80;99.90
9998;DHT22;5038;53.064;8.624;2022-12-29T15:35:56;9.80;99.90
9998;DHT22;5038;53.064;8.624;2022-12-29T15:38:29;9.80;99.90
9998;DHT22;5038;53.064;8.624;2022-12-29T15:41:13;9.80;99.90
9998;DHT22;5038;53.064;8.624;2022-12-29T15:43:53;9.80;99.90
9998;DHT22;5038;53.064;8.624;2022-12-29T15:46:23;9.80;99.90
9998;DHT22;5038;53.064;8.624;2022-12-29T15:48:52;9.90;99.90
9998;DHT22;5038;53.064;8.624;2022-12-29T15:51:23;9.80;99.90
9998;DHT22;5038;53.064;8.624;2022-12-29T15:53:55;9.80;99.90
9998;DHT22;5038;53.064;8.624;2022-12-29T15:56:23;9.70;99.90
9998;DHT22;5038;53.064;8.624;2022-12-29T15:58:52;9.70;99.90
9998;DHT22;5038;53.064;8.624;2022-12-29T16:01:24;9.70;99.90
9998;DHT22;5038;53.064;8.624;2022-12-29T16:03:57;9.60;99.90
9998;DHT22;5038;53.064;8.624;2022-12-29T16:06:29;9.60;99.90
9998;DHT22;5038;53.064;8.624;2022-12-29T16:09:02;9.60;99.90
9998;DHT22;5038;53.064;8.624;2022-12-29T16:11:33;9.50;99.90
9998;DHT22;5038;53.064;8.624;2022-12-29T16:14:06;9.50;99.90
9998;DHT22;5038;53.064;8.624;2022-12-29T16:16:37;9.50;99.90
9998;DHT22;5038;53.064;8.624;2022-12-29T16:19:13;9.50;99.90
9998;DHT22;5038;53.064;8.624;2022-12-29T16:21:42;9.40;99.90
9998;DHT22;5038;53.064;8.624;2022-12-29T16:24:15;9.40;99.90
9998;DHT22;5038;53.064;8.624;2022-12-29T16:26:48;9.40;99.90
9998;DHT22;5038;53.064;8.624;2022-12-29T16:29:19;9.40;99.90
9998;DHT22;5038;53.064;8.624;2022-12-29T16:31:51;9.40;99.90
9998;DHT22;5038;53.064;8.624;2022-12-29T16:34:29;9.40;99.90
9998;DHT22;5038;53.064;8.624;2022-12-29T16:36:59;9.40;99.90
9998;DHT22;5038;53.064;8.624;2022-12-29T16:39:31;9.40;99.90
9998;DHT22;5038;53.064;8.624;2022-12-29T16:42:00;9.40;99.90
9998;DHT22;5038;53.064;8.624;2022-12-29T16:44:30;9.40;99.90
9998;DHT22;5038;53.064;8.624;2022-12-29T16:47:02;9.40;99.90
9998;DHT22;5038;53.064;8.624;2022-12-29T16:49:32;9.40;99.90
9998;DHT22;5038;53.064;8.624;2022-12-29T16:52:00;9.40;99.90
9998;DHT22;5038;53.064;8.624;2022-12-29T16:54:34;9.40;99.90
9998;DHT22;5038;53.064;8.624;2022-12-29T16:57:04;9.40;99.90